Time;durP1;ratioP1;P1;durP2;ratioP2;P2;SDS_P1;SDS_P2;PMS_P1;PMS_P2;Temp;Humidity;BMP_temperature;BMP_pressure;BME280_temperature;BME280_humidity;BME280_pressure;Samples;Min_cycle;Max_cycle;Signal;HPM_P1;HPM_P2
2022/05/16 00:00:07;;;;;;;7.00;2.03;;;;;;;;;;4975352;28;20073;-76
2022/05/16 00:02:33;;;;;;;16.08;2.67;;;;;;;;;;4975327;28;20026;-77
2022/05/16 00:04:59;;;;;;;10.65;2.70;;;;;;;;;;4975211;28;20051;-77
2022/05/16 00:07:25;;;;;;;9.48;2.55;;;;;;;;;;4974976;28;20027;-77
2022/05/16 00:09:51;;;;;;;13.13;2.42;;;;;;;;;;4975113;28;20031;-77
2022/05/16 00:12:17;;;;;;;9.13;2.30;;;;;;;;;;4975121;28;20031;-77
2022/05/16 00:14:44;;;;;;;10.52;2.10;;;;;;;;;;4975361;28;20042;-77
2022/05/16 00:17:11;;;;;;;13.23;2.38;;;;;;;;;;4974938;28;20079;-77
2022/05/16 00:19:39;;;;;;;11.10;3.08;;;;;;;;;;4974913;28;20023;-77
2022/05/16 00:22:05;;;;;;;7.75;2.10;;;;;;;;;;4973708;28;20831;-76
2022/05/16 00:24:31;;;;;;;6.82;2.00;;;;;;;;;;4974905;28;20039;-77
2022/05/16 00:26:58;;;;;;;7.53;2.10;;;;;;;;;;4974855;28;20063;-77
2022/05/16 00:29:25;;;;;;;8.10;2.53;;;;;;;;;;4974830;28;20035;-77
2022/05/16 00:31:54;;;;;;;10.98;2.35;;;;;;;;;;4974849;28;20524;-77
2022/05/16 00:34:20;;;;;;;11.50;2.28;;;;;;;;;;4974783;28;20026;-77
2022/05/16 00:36:48;;;;;;;9.63;2.03;;;;;;;;;;4975006;28;20058;-75
2022/05/16 00:39:18;;;;;;;9.00;2.30;;;;;;;;;;4974533;28;20473;-76
2022/05/16 00:41:45;;;;;;;8.73;2.65;;;;;;;;;;4974424;28;20137;-76
2022/05/16 00:44:11;;;;;;;10.15;2.50;;;;;;;;;;4974665;28;20161;-76
2022/05/16 00:46:38;;;;;;;11.20;2.50;;;;;;;;;;4974512;28;20014;-76
2022/05/16 00:49:05;;;;;;;7.25;2.08;;;;;;;;;;4974382;28;20058;-76
2022/05/16 00:51:33;;;;;;;14.38;3.28;;;;;;;;;;4974423;28;20035;-76
2022/05/16 00:54:20;;;;;;;9.85;2.33;;;;;;;;;;4974346;28;20027;-76
2022/05/16 00:56:50;;;;;;;11.38;2.25;;;;;;;;;;4956729;28;20038;-76
2022/05/16 00:59:16;;;;;;;9.48;2.08;;;;;;;;;;4974184;28;20085;-76
2022/05/16 01:04:50;;;;;;;8.45;2.17;;;;;;;;;;4914511;29;20185;-76
2022/05/16 01:07:30;;;;;;;22.70;4.03;;;;;;;;;;4929747;28;20035;-76
2022/05/16 01:09:56;;;;;;;6.82;1.90;;;;;;;;;;4895455;29;20032;-76
2022/05/16 01:12:31;;;;;;;14.70;2.58;;;;;;;;;;4879697;29;20036;-76
2022/05/16 01:14:58;;;;;;;10.13;2.40;;;;;;;;;;4895326;29;20059;-76
2022/05/16 01:17:24;;;;;;;8.63;2.00;;;;;;;;;;4904227;29;20036;-76
2022/05/16 01:19:50;;;;;;;8.60;2.72;;;;;;;;;;4914091;29;20103;-76
2022/05/16 01:22:28;;;;;;;10.77;2.08;;;;;;;;;;4913947;29;20490;-76
2022/05/16 01:24:56;;;;;;;10.02;2.22;;;;;;;;;;4913986;29;20228;-76
2022/05/16 01:27:22;;;;;;;8.48;2.75;;;;;;;;;;4914080;29;20040;-76
2022/05/16 01:29:48;;;;;;;9.02;2.63;;;;;;;;;;4898120;29;20479;-76
2022/05/16 01:32:14;;;;;;;11.88;2.67;;;;;;;;;;4913701;29;20128;-76
2022/05/16 01:34:41;;;;;;;6.00;2.50;;;;;;;;;;4913726;29;20051;-76
2022/05/16 01:37:08;;;;;;;8.80;2.30;;;;;;;;;;4913789;29;20036;-76
2022/05/16 01:39:34;;;;;;;6.70;2.28;;;;;;;;;;4909876;28;20097;-75
2022/05/16 01:42:00;;;;;;;10.38;2.28;;;;;;;;;;4973502;28;20019;-76
2022/05/16 01:44:26;;;;;;;10.32;2.28;;;;;;;;;;4973396;28;20492;-76
2022/05/16 01:46:52;;;;;;;13.32;3.00;;;;;;;;;;4973371;28;20038;-76
2022/05/16 01:49:18;;;;;;;9.13;2.40;;;;;;;;;;4973369;28;20034;-76
2022/05/16 01:51:44;;;;;;;11.25;2.50;;;;;;;;;;4973189;28;20027;-76
2022/05/16 01:54:10;;;;;;;7.88;2.40;;;;;;;;;;4955724;28;20030;-76
2022/05/16 01:56:37;;;;;;;10.25;2.60;;;;;;;;;;4973113;28;20086;-76
2022/05/16 01:59:04;;;;;;;13.38;2.95;;;;;;;;;;4973352;28;20023;-76
2022/05/16 02:01:30;;;;;;;9.38;3.50;;;;;;;;;;4973086;28;20026;-76
2022/05/16 02:03:57;;;;;;;8.60;2.40;;;;;;;;;;4973119;28;20098;-75
2022/05/16 02:06:23;;;;;;;10.48;2.47;;;;;;;;;;4972936;28;20042;-76
2022/05/16 02:08:49;;;;;;;11.68;2.28;;;;;;;;;;4972819;28;20019;-75
2022/05/16 02:11:15;;;;;;;7.60;2.20;;;;;;;;;;4972826;28;20045;-76
2022/05/16 02:13:42;;;;;;;11.77;2.20;;;;;;;;;;4972853;28;20110;-76
2022/05/16 02:16:09;;;;;;;11.82;2.53;;;;;;;;;;4972744;28;20031;-76
2022/05/16 02:18:35;;;;;;;9.27;2.47;;;;;;;;;;4972542;28;20093;-76
2022/05/16 02:26:30;;;;;;;12.27;2.75;;;;;;;;;;4972420;28;20053;-76
2022/05/16 02:28:56;;;;;;;7.30;2.17;;;;;;;;;;4972592;28;20022;-75
2022/05/16 02:31:22;;;;;;;6.93;1.98;;;;;;;;;;4972397;28;20135;-76
2022/05/16 02:33:49;;;;;;;9.43;2.47;;;;;;;;;;4972393;28;20041;-76
2022/05/16 02:36:15;;;;;;;6.05;2.10;;;;;;;;;;4954842;28;20494;-76
2022/05/16 02:38:41;;;;;;;10.32;2.78;;;;;;;;;;4972287;28;20023;-75
2022/05/16 02:41:08;;;;;;;15.10;3.28;;;;;;;;;;4972103;28;20046;-76
2022/05/16 02:43:34;;;;;;;10.10;2.15;;;;;;;;;;4972175;28;20038;-75
2022/05/16 02:46:00;;;;;;;9.63;2.13;;;;;;;;;;4971449;28;20070;-75
2022/05/16 02:48:26;;;;;;;10.38;2.65;;;;;;;;;;4972304;28;20441;-75
2022/05/16 02:50:52;;;;;;;8.20;2.50;;;;;;;;;;4972049;28;20115;-76
2022/05/16 02:53:18;;;;;;;9.75;2.80;;;;;;;;;;4972078;28;20047;-75
2022/05/16 02:55:44;;;;;;;8.60;2.20;;;;;;;;;;4971997;28;20033;-75
2022/05/16 02:58:10;;;;;;;10.25;2.58;;;;;;;;;;4972184;28;20467;-75
2022/05/16 03:00:37;;;;;;;8.90;2.78;;;;;;;;;;4972136;28;20035;-76
2022/05/16 03:03:03;;;;;;;12.80;3.85;;;;;;;;;;4972242;28;20019;-76
2022/05/16 03:05:30;;;;;;;11.60;2.75;;;;;;;;;;4971959;28;20030;-75
2022/05/16 03:07:56;;;;;;;11.85;2.75;;;;;;;;;;4972017;28;20119;-75
2022/05/16 03:10:22;;;;;;;8.45;2.38;;;;;;;;;;4972102;28;20335;-75
2022/05/16 03:12:49;;;;;;;9.63;2.75;;;;;;;;;;4971998;28;20101;-75
2022/05/16 03:15:15;;;;;;;8.82;2.83;;;;;;;;;;4972057;28;20038;-75
2022/05/16 03:17:42;;;;;;;10.77;2.45;;;;;;;;;;4971792;28;20034;-75
2022/05/16 03:20:09;;;;;;;6.43;2.50;;;;;;;;;;4971770;28;20050;-75
2022/05/16 03:22:36;;;;;;;8.48;2.60;;;;;;;;;;4971766;28;20119;-75
2022/05/16 03:25:02;;;;;;;10.90;2.80;;;;;;;;;;4971908;28;20035;-75
2022/05/16 03:27:28;;;;;;;6.40;2.17;;;;;;;;;;4971896;28;20041;-75
2022/05/16 03:29:55;;;;;;;13.55;2.67;;;;;;;;;;4971869;28;20378;-76
2022/05/16 03:32:21;;;;;;;6.60;2.50;;;;;;;;;;4971782;28;20114;-75
2022/05/16 03:34:54;;;;;;;7.07;2.78;;;;;;;;;;4972052;28;20101;-75
2022/05/16 03:37:20;;;;;;;11.13;2.38;;;;;;;;;;4971735;28;20023;-74
2022/05/16 03:42:31;;;;;;;8.52;2.40;;;;;;;;;;4972056;28;20085;-75
2022/05/16 03:44:57;;;;;;;6.28;2.30;;;;;;;;;;4971698;28;20030;-75
2022/05/16 03:47:23;;;;;;;10.52;3.08;;;;;;;;;;4971510;28;20037;-75
2022/05/16 03:49:49;;;;;;;15.10;2.58;;;;;;;;;;4971391;28;20065;-75
2022/05/16 03:52:15;;;;;;;8.95;2.60;;;;;;;;;;4971337;28;20041;-75
2022/05/16 03:54:41;;;;;;;14.68;2.55;;;;;;;;;;4971622;28;20397;-75
2022/05/16 03:57:08;;;;;;;9.30;2.63;;;;;;;;;;4974186;28;20037;-75
2022/05/16 03:59:34;;;;;;;12.48;2.63;;;;;;;;;;4975017;28;20031;-75
2022/05/16 04:02:00;;;;;;;7.70;2.42;;;;;;;;;;4974831;28;20031;-75
2022/05/16 04:04:26;;;;;;;7.95;2.92;;;;;;;;;;4974913;28;20015;-75
2022/05/16 04:06:53;;;;;;;11.50;2.70;;;;;;;;;;4974704;28;20072;-75
2022/05/16 04:09:19;;;;;;;10.10;2.50;;;;;;;;;;4974647;28;20031;-75
2022/05/16 04:11:45;;;;;;;13.38;2.72;;;;;;;;;;4974766;28;20348;-75
2022/05/16 04:14:11;;;;;;;10.07;3.13;;;;;;;;;;4974885;28;20023;-75
2022/05/16 04:16:38;;;;;;;12.45;2.85;;;;;;;;;;4971485;28;20026;-75
2022/05/16 04:19:06;;;;;;;12.98;2.85;;;;;;;;;;4955302;29;20151;-75
2022/05/16 04:21:32;;;;;;;17.42;3.30;;;;;;;;;;4955136;29;20405;-75
2022/05/16 04:23:58;;;;;;;14.82;3.20;;;;;;;;;;4955311;29;20031;-75
2022/05/16 04:26:24;;;;;;;14.30;3.20;;;;;;;;;;4955378;29;20363;-75
2022/05/16 04:28:50;;;;;;;11.30;2.85;;;;;;;;;;4955518;29;20441;-75
2022/05/16 04:31:16;;;;;;;19.48;3.55;;;;;;;;;;4955245;29;20032;-75
2022/05/16 04:33:42;;;;;;;11.20;3.67;;;;;;;;;;4937758;29;20483;-75
2022/05/16 04:36:08;;;;;;;11.05;2.88;;;;;;;;;;4955067;29;20036;-75
2022/05/16 04:38:34;;;;;;;19.52;3.92;;;;;;;;;;4962780;28;20023;-75
2022/05/16 04:43:47;;;;;;;20.33;3.15;;;;;;;;;;4974545;28;20364;-75
2022/05/16 04:46:13;;;;;;;12.02;3.00;;;;;;;;;;4974368;28;20085;-75
2022/05/16 04:48:39;;;;;;;11.82;2.88;;;;;;;;;;4974338;28;20027;-75
2022/05/16 04:51:05;;;;;;;11.23;3.20;;;;;;;;;;4974298;28;20031;-75
2022/05/16 04:53:31;;;;;;;10.55;3.22;;;;;;;;;;4974347;28;20030;-75
2022/05/16 04:55:57;;;;;;;10.55;2.50;;;;;;;;;;4974190;28;20389;-75
2022/05/16 04:58:23;;;;;;;7.80;2.55;;;;;;;;;;4956810;28;20030;-75
2022/05/16 05:00:49;;;;;;;13.88;2.72;;;;;;;;;;4973928;28;20030;-75
2022/05/16 05:03:16;;;;;;;8.23;2.70;;;;;;;;;;4974066;28;20027;-75
2022/05/16 05:05:42;;;;;;;9.18;2.90;;;;;;;;;;4973803;28;20029;-75
2022/05/16 05:08:09;;;;;;;13.55;3.00;;;;;;;;;;4973123;28;20027;-75
2022/05/16 05:16:07;;;;;;;9.43;3.25;;;;;;;;;;4973783;28;20524;-75
2022/05/16 05:18:33;;;;;;;11.50;3.28;;;;;;;;;;4973592;28;20105;-75
2022/05/16 05:20:59;;;;;;;8.82;2.75;;;;;;;;;;4955976;28;20346;-75
2022/05/16 05:23:25;;;;;;;8.68;2.63;;;;;;;;;;4973576;28;20449;-75
2022/05/16 05:25:52;;;;;;;9.65;2.80;;;;;;;;;;4973562;28;20026;-75
2022/05/16 05:28:18;;;;;;;9.60;2.88;;;;;;;;;;4956128;28;20031;-76
2022/05/16 05:30:44;;;;;;;8.02;2.95;;;;;;;;;;4973497;28;20027;-76
2022/05/16 05:33:11;;;;;;;6.95;2.47;;;;;;;;;;4973446;28;20121;-75
2022/05/16 05:35:37;;;;;;;10.82;3.00;;;;;;;;;;4965537;28;20023;-75
2022/05/16 05:38:03;;;;;;;7.22;2.40;;;;;;;;;;4970554;28;20496;-72
2022/05/16 05:40:29;;;;;;;16.25;2.80;;;;;;;;;;4972718;28;20046;-72
2022/05/16 05:42:55;;;;;;;15.18;2.60;;;;;;;;;;4972898;28;20031;-72
2022/05/16 05:45:21;;;;;;;13.80;3.08;;;;;;;;;;4955174;28;20019;-72
2022/05/16 05:47:48;;;;;;;9.30;2.60;;;;;;;;;;4972891;28;20050;-75
2022/05/16 05:50:14;;;;;;;8.73;2.88;;;;;;;;;;4972591;28;20027;-75
2022/05/16 05:52:40;;;;;;;9.57;2.60;;;;;;;;;;4972629;28;20653;-75
2022/05/16 05:55:07;;;;;;;10.25;2.47;;;;;;;;;;4972569;28;20034;-76
2022/05/16 05:57:33;;;;;;;10.98;2.90;;;;;;;;;;4972879;28;20050;-75
2022/05/16 05:59:59;;;;;;;8.52;2.70;;;;;;;;;;4971786;28;20077;-76
2022/05/16 06:02:25;;;;;;;11.32;2.80;;;;;;;;;;4971058;28;20047;-72
2022/05/16 06:04:51;;;;;;;9.75;2.63;;;;;;;;;;4955282;28;20030;-77
2022/05/16 06:07:17;;;;;;;8.35;2.40;;;;;;;;;;4973437;28;20095;-78
2022/05/16 06:09:43;;;;;;;11.45;2.53;;;;;;;;;;4955309;28;20031;-80
2022/05/16 06:12:10;;;;;;;9.98;2.85;;;;;;;;;;4972897;28;20031;-81
2022/05/16 06:14:36;;;;;;;9.48;2.63;;;;;;;;;;4973204;28;20031;-80
2022/05/16 06:17:03;;;;;;;11.40;2.80;;;;;;;;;;4971854;28;20027;-80
2022/05/16 06:19:29;;;;;;;8.43;2.55;;;;;;;;;;4953344;28;20023;-81
2022/05/16 06:21:55;;;;;;;6.15;2.75;;;;;;;;;;4972882;28;20034;-81
2022/05/16 06:27:07;;;;;;;10.65;2.47;;;;;;;;;;4972578;28;20042;-81
2022/05/16 06:29:33;;;;;;;11.05;2.42;;;;;;;;;;4973053;28;20144;-80
2022/05/16 06:31:59;;;;;;;8.80;3.85;;;;;;;;;;4972477;28;20061;-81
2022/05/16 06:34:25;;;;;;;8.15;2.40;;;;;;;;;;4972974;28;20042;-79
2022/05/16 06:36:51;;;;;;;6.03;2.47;;;;;;;;;;4972857;28;20031;-80
2022/05/16 06:39:17;;;;;;;10.02;3.00;;;;;;;;;;4972531;28;20019;-80
2022/05/16 06:41:44;;;;;;;12.20;2.40;;;;;;;;;;4972275;28;20110;-80
2022/05/16 06:44:14;;;;;;;13.43;3.50;;;;;;;;;;4951670;28;20085;-81
2022/05/16 06:46:40;;;;;;;13.52;2.67;;;;;;;;;;4972528;28;20354;-80
2022/05/16 06:49:06;;;;;;;8.80;3.00;;;;;;;;;;4972909;28;20109;-80
2022/05/16 06:51:32;;;;;;;8.60;2.55;;;;;;;;;;4972690;28;20077;-80
2022/05/16 06:53:58;;;;;;;7.07;2.88;;;;;;;;;;4955354;28;20031;-80
2022/05/16 06:56:24;;;;;;;7.88;2.20;;;;;;;;;;4973371;28;20054;-80
2022/05/16 06:58:50;;;;;;;6.43;2.50;;;;;;;;;;4973122;28;20049;-81
2022/05/16 07:01:16;;;;;;;8.30;2.42;;;;;;;;;;4973437;28;20442;-82
2022/05/16 07:03:43;;;;;;;10.13;2.53;;;;;;;;;;4956202;28;20465;-81
2022/05/16 07:06:10;;;;;;;10.43;2.50;;;;;;;;;;4966660;28;20075;-81
2022/05/16 07:08:36;;;;;;;6.60;2.90;;;;;;;;;;4952954;29;20430;-81
2022/05/16 07:11:02;;;;;;;5.63;2.55;;;;;;;;;;4955666;28;20039;-77
2022/05/16 07:13:29;;;;;;;8.95;2.60;;;;;;;;;;4972949;28;20034;-79
2022/05/16 07:15:55;;;;;;;8.73;2.92;;;;;;;;;;4972594;28;20161;-80
2022/05/16 07:18:23;;;;;;;12.63;2.50;;;;;;;;;;4973113;28;20023;-80
2022/05/16 07:20:49;;;;;;;17.02;3.47;;;;;;;;;;4970352;28;20414;-79
2022/05/16 07:23:16;;;;;;;8.30;2.95;;;;;;;;;;4972756;28;20130;-79
2022/05/16 07:28:27;;;;;;;21.25;4.57;;;;;;;;;;4973012;28;20113;-77
2022/05/16 07:30:53;;;;;;;36.83;6.28;;;;;;;;;;4973479;28;20442;-78
2022/05/16 07:33:20;;;;;;;26.70;6.15;;;;;;;;;;4977146;28;20035;-79
2022/05/16 07:35:50;;;;;;;21.52;5.80;;;;;;;;;;4976864;28;20045;-77
2022/05/16 07:38:16;;;;;;;21.15;5.25;;;;;;;;;;4970651;28;20027;-79
2022/05/16 07:40:42;;;;;;;20.77;5.70;;;;;;;;;;4965802;28;20047;-78
2022/05/16 07:43:08;;;;;;;19.90;5.55;;;;;;;;;;4980435;28;20090;-78
2022/05/16 07:45:34;;;;;;;16.55;5.03;;;;;;;;;;4976108;28;20030;-79
2022/05/16 07:48:03;;;;;;;15.65;5.28;;;;;;;;;;4976349;28;20042;-78
2022/05/16 07:50:31;;;;;;;10.90;5.05;;;;;;;;;;4950918;28;20038;-79
2022/05/16 07:52:58;;;;;;;15.15;5.78;;;;;;;;;;4972440;28;20101;-79
2022/05/16 07:55:25;;;;;;;14.88;5.57;;;;;;;;;;4976477;28;20033;-78
2022/05/16 07:57:51;;;;;;;18.15;6.05;;;;;;;;;;4971854;28;20443;-79
2022/05/16 08:00:18;;;;;;;18.95;5.63;;;;;;;;;;4963952;28;20069;-80
2022/05/16 08:02:44;;;;;;;20.90;5.53;;;;;;;;;;4974377;28;20027;-80
2022/05/16 08:05:15;;;;;;;14.80;6.40;;;;;;;;;;4964574;28;20039;-80
2022/05/16 08:10:29;;;;;;;18.10;6.20;;;;;;;;;;4971010;28;20041;-80
2022/05/16 08:12:55;;;;;;;19.13;5.68;;;;;;;;;;4975758;28;20035;-79
2022/05/16 08:15:21;;;;;;;14.80;5.43;;;;;;;;;;4961976;28;20073;-78
2022/05/16 08:17:47;;;;;;;14.95;5.38;;;;;;;;;;4960170;28;20113;-77
2022/05/16 08:20:13;;;;;;;17.17;6.13;;;;;;;;;;4956406;29;20046;-81
2022/05/16 08:22:39;;;;;;;18.58;6.00;;;;;;;;;;4939364;29;20535;-81
2022/05/16 08:25:06;;;;;;;12.60;5.07;;;;;;;;;;4956444;29;20099;-81
2022/05/16 08:27:32;;;;;;;12.70;5.18;;;;;;;;;;4956483;29;20030;-81
2022/05/16 08:29:58;;;;;;;11.25;5.20;;;;;;;;;;4956385;29;20417;-83
2022/05/16 08:32:24;;;;;;;11.82;5.10;;;;;;;;;;4939124;29;20363;-82
2022/05/16 08:34:51;;;;;;;14.48;5.18;;;;;;;;;;4956620;29;20205;-82
2022/05/16 08:40:03;;;;;;;19.98;5.70;;;;;;;;;;4975493;28;20133;-82
2022/05/16 08:42:44;;;;;;;11.95;6.05;;;;;;;;;;4974367;28;20019;-83
2022/05/16 08:45:31;;;;;;;14.65;6.07;;;;;;;;;;4975395;28;20662;-83
2022/05/16 08:48:26;;;;;;;14.35;5.95;;;;;;;;;;4941954;28;20453;-83
2022/05/16 08:50:55;;;;;;;12.07;5.80;;;;;;;;;;4878233;29;20045;-82
2022/05/16 08:53:38;;;;;;;13.98;5.40;;;;;;;;;;4878231;29;20108;-83
2022/05/16 08:56:05;;;;;;;10.20;5.63;;;;;;;;;;4862358;29;20457;-83
2022/05/16 08:58:47;;;;;;;12.40;6.13;;;;;;;;;;4862370;29;20037;-83
2022/05/16 09:01:16;;;;;;;9.77;5.10;;;;;;;;;;4877795;29;20065;-83
2022/05/16 09:03:47;;;;;;;14.75;5.63;;;;;;;;;;4877886;29;20131;-83
2022/05/16 09:06:19;;;;;;;16.35;6.22;;;;;;;;;;4862141;29;20060;-83
2022/05/16 09:09:04;;;;;;;14.25;5.93;;;;;;;;;;4877637;29;20041;-84
2022/05/16 09:11:39;;;;;;;15.30;6.30;;;;;;;;;;4877784;29;20112;-84
2022/05/16 09:14:07;;;;;;;15.07;6.63;;;;;;;;;;4877699;29;20119;-84
2022/05/16 09:16:34;;;;;;;13.85;5.53;;;;;;;;;;4877711;29;20029;-84
2022/05/16 09:19:19;;;;;;;12.23;5.88;;;;;;;;;;4862234;29;20061;-83
2022/05/16 09:22:08;;;;;;;9.95;5.40;;;;;;;;;;4876785;29;20290;-78
2022/05/16 09:24:36;;;;;;;11.27;6.30;;;;;;;;;;4897605;29;20423;-78
2022/05/16 09:27:12;;;;;;;13.18;6.18;;;;;;;;;;4891573;29;20040;-74
2022/05/16 09:29:41;;;;;;;10.13;6.03;;;;;;;;;;4897864;29;20040;-75
2022/05/16 09:32:15;;;;;;;13.50;6.22;;;;;;;;;;4913766;29;20111;-75
2022/05/16 09:34:41;;;;;;;13.32;6.07;;;;;;;;;;4919903;29;20151;-74
2022/05/16 09:37:07;;;;;;;17.27;5.55;;;;;;;;;;4913547;29;20373;-74
2022/05/16 09:39:35;;;;;;;14.23;5.72;;;;;;;;;;4931198;29;20032;-74
2022/05/16 09:42:11;;;;;;;8.55;5.35;;;;;;;;;;4931467;29;20415;-74
2022/05/16 09:44:48;;;;;;;10.27;5.10;;;;;;;;;;4923454;29;20478;-73
2022/05/16 09:47:22;;;;;;;12.90;5.32;;;;;;;;;;4923344;29;20055;-73
2022/05/16 09:50:03;;;;;;;13.60;5.72;;;;;;;;;;4928846;29;20267;-74
2022/05/16 09:52:30;;;;;;;9.18;4.90;;;;;;;;;;4930825;29;20028;-75
2022/05/16 09:55:06;;;;;;;8.63;4.65;;;;;;;;;;4915410;29;20410;-74
2022/05/16 09:57:39;;;;;;;7.80;4.72;;;;;;;;;;4932171;29;20470;-75
2022/05/16 10:00:27;;;;;;;12.15;5.10;;;;;;;;;;4931611;29;20126;-74
2022/05/16 10:03:00;;;;;;;9.80;5.18;;;;;;;;;;4962144;28;20035;-74
2022/05/16 10:05:29;;;;;;;7.75;4.75;;;;;;;;;;4972478;28;20018;-74
2022/05/16 10:08:06;;;;;;;13.00;4.60;;;;;;;;;;4972725;28;20407;-74
2022/05/16 10:10:36;;;;;;;12.55;5.03;;;;;;;;;;4955413;28;20053;-74
2022/05/16 10:13:02;;;;;;;9.52;5.40;;;;;;;;;;4972865;28;20027;-74
2022/05/16 10:15:28;;;;;;;11.57;5.00;;;;;;;;;;4972144;28;20346;-74
2022/05/16 10:17:56;;;;;;;7.78;4.28;;;;;;;;;;4972727;28;20038;-74
2022/05/16 10:20:25;;;;;;;10.85;4.32;;;;;;;;;;4972421;28;20027;-74
2022/05/16 10:22:53;;;;;;;14.20;4.70;;;;;;;;;;4972683;28;20121;-74
2022/05/16 10:25:22;;;;;;;9.75;5.78;;;;;;;;;;4972755;28;20027;-74
2022/05/16 10:27:51;;;;;;;8.57;4.80;;;;;;;;;;4972706;28;20023;-73
2022/05/16 10:30:21;;;;;;;9.77;5.70;;;;;;;;;;4955142;28;20109;-74
2022/05/16 10:35:49;;;;;;;11.82;5.53;;;;;;;;;;4972588;28;20097;-77
2022/05/16 10:38:21;;;;;;;11.90;5.10;;;;;;;;;;4972565;28;20345;-74
2022/05/16 10:40:51;;;;;;;11.73;4.82;;;;;;;;;;4971767;28;20050;-77
2022/05/16 10:43:39;;;;;;;9.90;4.43;;;;;;;;;;4969843;28;20461;-77
2022/05/16 10:46:18;;;;;;;11.85;4.15;;;;;;;;;;4970892;28;20026;-76
2022/05/16 10:48:46;;;;;;;8.18;4.40;;;;;;;;;;4970526;28;20022;-75
2022/05/16 10:51:15;;;;;;;10.82;3.95;;;;;;;;;;4971885;28;20019;-76
2022/05/16 10:53:41;;;;;;;9.98;4.47;;;;;;;;;;4954595;28;20026;-75
2022/05/16 10:56:13;;;;;;;7.47;4.60;;;;;;;;;;4971933;28;20018;-75
2022/05/16 10:58:39;;;;;;;9.80;4.32;;;;;;;;;;4969901;28;20030;-75
2022/05/16 11:01:13;;;;;;;12.63;4.32;;;;;;;;;;4954342;28;20035;-76
2022/05/16 11:03:58;;;;;;;9.20;4.72;;;;;;;;;;4952148;28;20478;-76
2022/05/16 11:06:34;;;;;;;15.18;5.72;;;;;;;;;;4954610;28;20027;-76
2022/05/16 11:09:17;;;;;;;27.85;5.78;;;;;;;;;;4973978;28;20110;-76
2022/05/16 11:11:50;;;;;;;11.82;5.15;;;;;;;;;;4976064;28;20030;-76
2022/05/16 11:14:21;;;;;;;11.93;6.07;;;;;;;;;;4976355;28;20027;-76
2022/05/16 11:16:50;;;;;;;16.08;5.55;;;;;;;;;;4958560;28;20438;-76
2022/05/16 11:19:16;;;;;;;8.45;4.47;;;;;;;;;;4958557;28;20031;-73
2022/05/16 11:21:50;;;;;;;8.25;4.03;;;;;;;;;;4965507;28;20458;-73
2022/05/16 11:24:30;;;;;;;9.13;4.82;;;;;;;;;;4973945;28;20134;-74
2022/05/16 11:27:09;;;;;;;12.20;5.00;;;;;;;;;;4957971;28;20116;-74
2022/05/16 11:29:41;;;;;;;6.43;3.60;;;;;;;;;;4973440;28;20077;-74
2022/05/16 11:32:25;;;;;;;8.00;3.60;;;;;;;;;;4975969;28;20022;-74
2022/05/16 11:34:57;;;;;;;10.82;3.20;;;;;;;;;;4976354;28;20031;-73
2022/05/16 11:37:36;;;;;;;7.32;2.80;;;;;;;;;;4976167;28;20026;-74
2022/05/16 11:40:31;;;;;;;17.17;3.60;;;;;;;;;;4958133;28;20043;-74
2022/05/16 11:43:16;;;;;;;8.98;2.78;;;;;;;;;;4878585;29;20044;-74
2022/05/16 11:45:51;;;;;;;10.70;3.20;;;;;;;;;;4878569;29;20546;-73
2022/05/16 11:48:26;;;;;;;8.00;3.03;;;;;;;;;;4878882;29;20049;-74
2022/05/16 11:51:03;;;;;;;9.57;3.35;;;;;;;;;;4862931;29;20040;-74
2022/05/16 11:53:32;;;;;;;5.07;3.00;;;;;;;;;;4878635;29;20033;-73
2022/05/16 12:01:31;;;;;;;9.43;3.35;;;;;;;;;;4877844;29;20364;-74
2022/05/16 12:04:12;;;;;;;6.25;3.45;;;;;;;;;;4878187;29;20165;-73
2022/05/16 12:06:42;;;;;;;7.65;3.90;;;;;;;;;;4878652;29;20040;-73
2022/05/16 12:09:17;;;;;;;12.20;4.00;;;;;;;;;;4878299;29;20413;-75
2022/05/16 12:11:57;;;;;;;9.43;4.00;;;;;;;;;;4877644;29;20176;-76
2022/05/16 12:14:27;;;;;;;7.97;4.15;;;;;;;;;;4877835;29;20073;-75
2022/05/16 12:17:19;;;;;;;14.95;4.95;;;;;;;;;;4877272;29;20883;-75
2022/05/16 12:19:46;;;;;;;7.35;3.80;;;;;;;;;;4941336;28;20042;-76
2022/05/16 12:22:21;;;;;;;10.32;4.57;;;;;;;;;;4974258;28;20037;-76
2022/05/16 12:24:53;;;;;;;7.30;4.07;;;;;;;;;;4973627;28;20102;-75
2022/05/16 12:27:38;;;;;;;8.52;5.22;;;;;;;;;;4956006;28;20027;-76
2022/05/16 12:30:10;;;;;;;12.50;5.70;;;;;;;;;;4973273;28;20519;-75
2022/05/16 12:32:37;;;;;;;11.93;5.63;;;;;;;;;;4972247;28;20045;-76
2022/05/16 12:35:06;;;;;;;9.27;4.88;;;;;;;;;;4956665;28;20031;-75
2022/05/16 12:37:33;;;;;;;15.63;5.80;;;;;;;;;;4956352;28;20027;-75
2022/05/16 12:40:05;;;;;;;9.65;6.05;;;;;;;;;;4973779;28;20061;-76
2022/05/16 12:42:46;;;;;;;9.15;5.57;;;;;;;;;;4974673;28;20042;-76
2022/05/16 12:45:27;;;;;;;14.10;6.40;;;;;;;;;;4974247;28;20372;-76
2022/05/16 12:48:12;;;;;;;13.70;6.90;;;;;;;;;;4946616;28;20033;-76
2022/05/16 12:50:38;;;;;;;16.35;7.45;;;;;;;;;;4966623;28;20023;-76
2022/05/16 12:53:23;;;;;;;11.50;7.90;;;;;;;;;;4969288;28;20852;-75
2022/05/16 12:56:08;;;;;;;12.23;8.32;;;;;;;;;;4974589;28;20477;-75
2022/05/16 12:58:39;;;;;;;13.02;8.20;;;;;;;;;;4972181;28;20102;-75
2022/05/16 13:01:05;;;;;;;20.10;10.73;;;;;;;;;;4974086;28;20461;-74
2022/05/16 13:03:38;;;;;;;23.83;12.93;;;;;;;;;;4971677;28;20037;-74
2022/05/16 13:06:07;;;;;;;22.83;12.70;;;;;;;;;;4968272;28;20545;-75
2022/05/16 13:08:45;;;;;;;17.20;11.05;;;;;;;;;;4955331;29;20362;-76
2022/05/16 13:11:25;;;;;;;20.45;13.68;;;;;;;;;;4962046;28;20035;-76
2022/05/16 13:14:06;;;;;;;24.20;13.55;;;;;;;;;;4974493;28;20389;-75
2022/05/16 13:16:34;;;;;;;21.27;12.38;;;;;;;;;;4974422;28;20034;-76
2022/05/16 13:19:17;;;;;;;16.80;9.88;;;;;;;;;;4974692;28;20022;-76
2022/05/16 13:21:46;;;;;;;15.00;7.60;;;;;;;;;;4967150;28;20038;-76
2022/05/16 13:24:14;;;;;;;13.85;6.45;;;;;;;;;;4967657;28;20346;-75
2022/05/16 13:29:33;;;;;;;12.45;4.63;;;;;;;;;;4971854;28;20129;-75
2022/05/16 13:32:00;;;;;;;13.02;4.57;;;;;;;;;;4971591;28;20093;-75
2022/05/16 13:34:34;;;;;;;8.95;4.45;;;;;;;;;;4955526;28;20045;-75
2022/05/16 13:37:01;;;;;;;10.57;4.93;;;;;;;;;;4973015;28;20038;-73
2022/05/16 13:39:27;;;;;;;9.32;5.10;;;;;;;;;;4971177;28;20113;-75
2022/05/16 13:41:54;;;;;;;11.65;5.20;;;;;;;;;;4973550;28;20039;-75
2022/05/16 13:44:20;;;;;;;13.55;4.85;;;;;;;;;;4972477;28;20031;-75
2022/05/16 13:46:46;;;;;;;13.80;5.45;;;;;;;;;;4973548;28;20086;-74
2022/05/16 13:49:15;;;;;;;14.68;5.88;;;;;;;;;;4972203;28;20500;-76
2022/05/16 13:51:46;;;;;;;19.73;5.68;;;;;;;;;;4971435;28;20381;-75
2022/05/16 13:54:17;;;;;;;13.65;5.60;;;;;;;;;;4966989;28;20578;-76
2022/05/16 13:56:55;;;;;;;17.20;6.00;;;;;;;;;;4967793;28;20043;-76
2022/05/16 13:59:26;;;;;;;16.25;5.97;;;;;;;;;;4971234;28;20031;-75
2022/05/16 14:01:53;;;;;;;15.48;5.82;;;;;;;;;;4972377;28;20101;-74
2022/05/16 14:04:22;;;;;;;19.73;6.55;;;;;;;;;;4972996;28;20019;-76
2022/05/16 14:06:53;;;;;;;14.18;6.05;;;;;;;;;;4963819;28;20034;-75
2022/05/16 14:09:25;;;;;;;14.50;6.37;;;;;;;;;;4954779;29;20433;-75
2022/05/16 14:11:52;;;;;;;15.55;6.35;;;;;;;;;;4966564;28;20438;-75
2022/05/16 14:14:20;;;;;;;14.88;6.00;;;;;;;;;;4973716;28;20503;-75
2022/05/16 14:16:50;;;;;;;13.15;5.45;;;;;;;;;;4973036;28;20184;-76
2022/05/16 14:19:29;;;;;;;15.80;5.97;;;;;;;;;;4973575;28;20176;-75
2022/05/16 14:22:08;;;;;;;17.58;5.45;;;;;;;;;;4955724;28;20116;-76
2022/05/16 14:24:43;;;;;;;15.48;5.20;;;;;;;;;;4972735;28;20061;-76
2022/05/16 14:27:27;;;;;;;12.38;4.93;;;;;;;;;;4973565;28;20385;-83
2022/05/16 14:30:00;;;;;;;19.00;5.97;;;;;;;;;;4953618;28;20034;-81
2022/05/16 14:32:27;;;;;;;13.18;5.95;;;;;;;;;;4963258;28;20027;-82
2022/05/16 14:35:02;;;;;;;16.35;5.47;;;;;;;;;;4972065;28;20031;-81
2022/05/16 14:37:29;;;;;;;15.73;6.32;;;;;;;;;;4971204;28;20037;-80
2022/05/16 14:40:02;;;;;;;17.63;6.78;;;;;;;;;;4962948;28;20051;-79
2022/05/16 14:42:33;;;;;;;17.48;6.43;;;;;;;;;;4946219;28;20026;-79
2022/05/16 14:45:10;;;;;;;15.55;6.10;;;;;;;;;;4965728;28;20560;-80
2022/05/16 14:47:40;;;;;;;15.57;6.35;;;;;;;;;;4970319;28;20062;-79
2022/05/16 14:50:11;;;;;;;15.48;6.18;;;;;;;;;;4952277;28;20034;-79
2022/05/16 14:52:38;;;;;;;15.82;5.55;;;;;;;;;;4955389;28;20069;-73
2022/05/16 14:55:06;;;;;;;13.00;5.30;;;;;;;;;;4953475;29;20024;-75
2022/05/16 14:57:33;;;;;;;16.40;5.25;;;;;;;;;;4953667;29;20042;-76
2022/05/16 15:00:00;;;;;;;17.52;4.75;;;;;;;;;;4970162;28;20422;-78
2022/05/16 15:05:10;;;;;;;16.55;4.38;;;;;;;;;;4971293;28;20138;-77
2022/05/16 15:07:41;;;;;;;13.18;3.80;;;;;;;;;;4955399;28;20102;-80
2022/05/16 15:10:08;;;;;;;8.13;2.97;;;;;;;;;;4953974;28;20530;-80
2022/05/16 15:12:34;;;;;;;11.63;3.08;;;;;;;;;;4972513;28;20034;-79
2022/05/16 15:15:02;;;;;;;12.50;3.00;;;;;;;;;;4972685;28;20429;-80
2022/05/16 15:17:28;;;;;;;8.68;2.72;;;;;;;;;;4972887;28;20025;-79
2022/05/16 15:19:54;;;;;;;11.27;3.25;;;;;;;;;;4972881;28;20102;-79
2022/05/16 15:22:20;;;;;;;12.80;2.95;;;;;;;;;;4955508;28;20075;-79
2022/05/16 15:24:54;;;;;;;11.23;3.17;;;;;;;;;;4972789;28;20034;-79
2022/05/16 15:27:23;;;;;;;9.18;3.30;;;;;;;;;;4956006;28;20034;-80
2022/05/16 15:29:50;;;;;;;11.70;3.42;;;;;;;;;;4972871;28;20560;-79